createdAt,value
2022-12-17T00:02:02.467Z,48.00
2022-12-17T00:04:47.877Z,51.25
2022-12-17T00:07:33.264Z,52.00
2022-12-17T00:10:18.479Z,51.00
2022-12-17T00:13:19.888Z,51.80
2022-12-17T00:16:10.581Z,50.40
2022-12-17T00:18:56.430Z,48.00
2022-12-17T00:21:42.096Z,55.75
2022-12-17T00:24:27.735Z,52.00
2022-12-17T00:27:13.178Z,49.50
2022-12-17T00:29:58.721Z,50.50
2022-12-17T00:32:45.736Z,52.20
2022-12-17T00:35:31.373Z,51.75
2022-12-17T00:38:16.664Z,51.00
2022-12-17T00:41:01.857Z,51.40
2022-12-17T00:43:47.300Z,50.25
2022-12-17T00:46:33.605Z,53.50
2022-12-17T00:49:20.653Z,54.00
2022-12-17T00:52:06.123Z,53.00
2022-12-17T00:54:52.551Z,52.00
2022-12-17T00:57:41.801Z,50.75
2022-12-17T01:00:28.762Z,52.80
2022-12-17T01:03:23.151Z,51.75
2022-12-17T01:06:10.077Z,51.00
2022-12-17T01:08:55.409Z,51.00
2022-12-17T01:11:41.947Z,51.25
2022-12-17T01:14:27.463Z,47.50
2022-12-17T01:17:12.927Z,50.00
2022-12-17T01:19:58.348Z,50.50
2022-12-17T01:22:45.064Z,51.00
2022-12-17T01:25:30.546Z,51.75
2022-12-17T01:28:17.140Z,51.00
2022-12-17T01:31:02.519Z,48.00
2022-12-17T01:33:54.079Z,52.00
2022-12-17T01:36:39.488Z,48.00
2022-12-17T01:39:26.162Z,45.00
2022-12-17T01:42:12.825Z,48.00
2022-12-17T01:45:09.360Z,52.25
2022-12-17T01:47:57.728Z,49.25
2022-12-17T01:50:44.643Z,52.75
2022-12-17T01:53:29.886Z,45.75
2022-12-17T01:56:17.570Z,48.00
2022-12-17T01:59:02.987Z,48.75
2022-12-17T02:01:48.319Z,51.50
2022-12-17T02:04:33.867Z,48.25
2022-12-17T02:07:27.360Z,52.20
2022-12-17T02:10:16.884Z,47.50
2022-12-17T02:13:05.497Z,48.00
2022-12-17T02:15:52.765Z,48.60
2022-12-17T02:18:41.528Z,45.00
2022-12-17T02:21:27.612Z,45.00
2022-12-17T02:24:19.281Z,42.75
2022-12-17T02:27:07.791Z,52.50
2022-12-17T02:29:55.434Z,49.25
2022-12-17T02:32:42.226Z,46.50
2022-12-17T02:35:27.819Z,44.00
2022-12-17T02:38:18.696Z,43.00
2022-12-17T02:41:04.804Z,48.00
2022-12-17T02:43:51.883Z,44.25
2022-12-17T02:46:37.498Z,52.00
2022-12-17T02:49:23.484Z,52.25
2022-12-17T02:52:12.518Z,48.00
2022-12-17T02:54:58.062Z,51.75
2022-12-17T02:57:55.929Z,45.00
2022-12-17T03:00:43.105Z,48.00
2022-12-17T03:03:28.416Z,48.00
2022-12-17T03:06:13.971Z,44.80
2022-12-17T03:09:02.477Z,44.00
2022-12-17T03:11:48.413Z,48.00
2022-12-17T03:14:34.064Z,45.40
2022-12-17T03:17:21.039Z,44.00
2022-12-17T03:20:06.735Z,46.50
2022-12-17T03:22:52.557Z,46.40
2022-12-17T03:25:38.239Z,45.50
2022-12-17T03:28:24.544Z,47.75
2022-12-17T03:31:10.044Z,46.50
2022-12-17T03:33:57.118Z,48.80
2022-12-17T03:36:42.770Z,48.75
2022-12-17T03:39:28.371Z,49.00
2022-12-17T03:42:14.064Z,45.00
2022-12-17T03:45:05.175Z,45.50
2022-12-17T03:47:50.910Z,48.25
2022-12-17T03:50:37.677Z,44.80
2022-12-17T03:53:23.265Z,44.60
2022-12-17T03:56:08.910Z,41.00
2022-12-17T03:58:53.728Z,45.00
2022-12-17T04:01:54.163Z,49.00
2022-12-17T04:04:39.915Z,44.00
2022-12-17T04:07:26.773Z,45.00
2022-12-17T04:10:12.367Z,43.25
2022-12-17T04:12:58.107Z,49.00
2022-12-17T04:15:43.891Z,51.00
2022-12-17T04:18:29.477Z,46.00
2022-12-17T04:21:14.893Z,43.80
2022-12-17T04:24:01.961Z,45.00
2022-12-17T04:26:47.515Z,48.00
2022-12-17T04:29:33.132Z,45.00
2022-12-17T04:32:18.717Z,45.00
2022-12-17T04:35:04.378Z,39.50
2022-12-17T04:37:50.168Z,45.25
2022-12-17T04:40:39.991Z,42.20
2022-12-17T04:43:26.079Z,41.50
2022-12-17T04:46:11.728Z,46.80
2022-12-17T04:48:59.533Z,48.00
2022-12-17T04:51:44.497Z,42.40
2022-12-17T04:54:30.281Z,41.75
2022-12-17T04:57:16.949Z,43.00
2022-12-17T05:00:02.646Z,48.00
2022-12-17T05:02:48.340Z,45.00
2022-12-17T05:05:34.192Z,45.40
2022-12-17T05:08:16.166Z,45.00
2022-12-17T05:11:01.826Z,49.00
2022-12-17T05:13:48.703Z,47.60
2022-12-17T05:16:34.480Z,45.00
2022-12-17T05:19:20.258Z,44.00
2022-12-17T05:22:05.902Z,48.00
2022-12-17T05:24:51.534Z,41.00
2022-12-17T05:27:37.132Z,45.25
2022-12-17T05:30:24.945Z,46.00
2022-12-17T05:33:17.787Z,45.00
2022-12-17T05:36:03.452Z,47.00
2022-12-17T05:38:49.120Z,40.20
2022-12-17T05:41:34.883Z,48.00
2022-12-17T05:44:20.576Z,45.00
2022-12-17T05:47:07.663Z,38.00
2022-12-17T05:49:59.054Z,43.80
2022-12-17T05:52:44.743Z,44.25
2022-12-17T05:55:30.250Z,44.25
2022-12-17T05:58:21.105Z,41.60
2022-12-17T06:01:06.589Z,38.60
2022-12-17T06:03:53.398Z,44.50
2022-12-17T06:06:39.043Z,39.25
2022-12-17T06:09:24.775Z,38.25
2022-12-17T06:12:10.448Z,40.00
2022-12-17T06:14:56.166Z,32.75
2022-12-17T06:17:41.758Z,39.80
2022-12-17T06:20:29.345Z,44.00
2022-12-17T06:23:18.593Z,40.50
2022-12-17T06:26:04.328Z,42.80
2022-12-17T06:28:49.747Z,42.40
2022-12-17T06:31:35.323Z,40.00
2022-12-17T06:34:21.078Z,41.20
2022-12-17T06:37:08.119Z,42.20
2022-12-17T06:39:53.737Z,42.00
2022-12-17T06:42:39.555Z,42.25
2022-12-17T06:45:26.660Z,37.20
2022-12-17T06:48:13.900Z,42.75
2022-12-17T06:50:59.294Z,39.00
2022-12-17T06:53:45.647Z,51.00
2022-12-17T06:56:31.378Z,45.00
2022-12-17T06:59:17.254Z,42.00
2022-12-17T07:02:03.209Z,38.75
2022-12-17T07:04:48.780Z,44.33
2022-12-17T07:07:34.590Z,42.00
2022-12-17T07:10:21.535Z,45.00
2022-12-17T07:13:07.293Z,41.75
2022-12-17T07:15:52.655Z,42.50
2022-12-17T07:18:38.357Z,43.50
2022-12-17T07:21:23.919Z,40.00
2022-12-17T07:24:09.989Z,43.75
2022-12-17T07:26:53.309Z,41.75
2022-12-17T07:29:38.918Z,58.25
2022-12-17T07:32:24.606Z,45.60
2022-12-17T07:35:10.076Z,50.60
2022-12-17T07:37:55.770Z,50.50
2022-12-17T07:40:41.381Z,41.00
2022-12-17T07:43:30.638Z,38.20
2022-12-17T07:46:19.450Z,45.25
2022-12-17T07:49:05.227Z,39.60
2022-12-17T07:51:50.800Z,36.80
2022-12-17T07:54:36.460Z,40.20
2022-12-17T07:57:22.120Z,39.00
2022-12-17T08:00:08.896Z,39.00
2022-12-17T08:02:54.711Z,43.00
2022-12-17T08:05:40.268Z,49.40
2022-12-17T08:08:26.760Z,40.50
2022-12-17T08:11:12.521Z,35.00
2022-12-17T08:13:58.295Z,32.50
2022-12-17T08:16:45.327Z,34.80
2022-12-17T08:19:31.146Z,43.00
2022-12-17T08:22:16.839Z,64.50
2022-12-17T08:25:02.583Z,44.20
2022-12-17T08:27:48.366Z,41.20
2022-12-17T08:30:34.061Z,42.00
2022-12-17T08:33:22.525Z,38.60
2022-12-17T08:36:11.913Z,37.00
2022-12-17T08:38:57.591Z,39.80
2022-12-17T08:41:43.154Z,39.00
2022-12-17T08:44:31.144Z,44.00
2022-12-17T08:47:16.858Z,46.50
2022-12-17T08:50:03.802Z,42.00
2022-12-17T08:52:49.542Z,44.00
2022-12-17T08:55:35.201Z,50.00
2022-12-17T08:58:20.752Z,45.20
2022-12-17T09:01:06.483Z,43.60
2022-12-17T09:03:52.221Z,54.50
2022-12-17T09:06:39.460Z,42.80
2022-12-17T09:09:25.162Z,54.60
2022-12-17T09:12:10.725Z,51.25
2022-12-17T09:14:56.262Z,58.80
2022-12-17T09:17:41.927Z,49.80
2022-12-17T09:20:29.644Z,54.60
2022-12-17T09:23:16.738Z,43.00
2022-12-17T09:26:02.327Z,36.40
2022-12-17T09:28:48.101Z,43.40
2022-12-17T09:31:37.266Z,45.00
2022-12-17T09:34:23.075Z,32.60
2022-12-17T09:37:08.544Z,41.20
2022-12-17T09:40:06.905Z,43.00
2022-12-17T09:43:01.202Z,42.00
2022-12-17T09:45:48.796Z,40.00
2022-12-17T09:48:37.069Z,43.20
2022-12-17T09:51:23.046Z,29.75
2022-12-17T09:54:11.134Z,32.00
2022-12-17T09:57:00.378Z,37.33
2022-12-17T09:59:52.306Z,32.75
2022-12-17T10:02:39.548Z,40.50
2022-12-17T10:05:26.860Z,28.75
2022-12-17T10:08:12.379Z,52.00
2022-12-17T10:11:00.093Z,37.00
2022-12-17T10:13:47.181Z,31.50
2022-12-17T10:16:52.604Z,34.25
2022-12-17T10:19:40.154Z,41.60
2022-12-17T10:22:29.311Z,33.80
2022-12-17T10:25:14.950Z,34.80
2022-12-17T10:28:00.564Z,35.00
2022-12-17T10:30:47.380Z,40.00
2022-12-17T10:33:35.486Z,28.00
2022-12-17T10:36:22.189Z,36.50
2022-12-17T10:39:12.556Z,37.00
2022-12-17T10:42:01.304Z,37.50
2022-12-17T10:44:47.952Z,50.75
2022-12-17T10:47:35.954Z,38.60
2022-12-17T10:50:22.588Z,34.20
2022-12-17T10:53:08.133Z,32.75
2022-12-17T10:55:54.216Z,37.20
2022-12-17T10:58:43.918Z,41.00
2022-12-17T11:01:30.311Z,36.25
2022-12-17T11:04:18.182Z,32.00
2022-12-17T11:07:04.686Z,48.00
2022-12-17T11:09:53.898Z,33.50
2022-12-17T11:12:40.314Z,43.00
2022-12-17T11:15:31.342Z,35.00
2022-12-17T11:18:17.075Z,29.40
2022-12-17T11:21:06.345Z,53.00
2022-12-17T11:23:52.603Z,34.00
2022-12-17T11:26:38.349Z,29.60
2022-12-17T11:29:24.031Z,39.40
2022-12-17T11:32:18.603Z,40.00
2022-12-17T11:35:12.287Z,42.00
2022-12-17T11:38:02.397Z,39.40
2022-12-17T11:40:51.064Z,38.60
2022-12-17T11:43:39.034Z,35.00
2022-12-17T11:46:32.319Z,32.60
2022-12-17T11:49:21.085Z,35.40
2022-12-17T11:52:08.210Z,42.00
2022-12-17T11:54:57.930Z,43.80
2022-12-17T11:57:45.558Z,44.50
2022-12-17T12:00:34.273Z,42.60
2022-12-17T12:03:28.110Z,34.20
2022-12-17T12:06:16.780Z,38.50
2022-12-17T12:09:06.058Z,43.40
2022-12-17T12:11:55.038Z,39.00
2022-12-17T12:14:48.134Z,32.75
2022-12-17T12:17:43.723Z,40.25
2022-12-17T12:20:34.761Z,36.25
2022-12-17T12:23:23.802Z,36.00
2022-12-17T12:26:15.962Z,32.50
2022-12-17T12:29:04.735Z,32.40
2022-12-17T12:31:52.877Z,29.00
2022-12-17T12:34:40.362Z,38.00
2022-12-17T12:37:25.702Z,34.67
2022-12-17T12:40:16.046Z,40.00
2022-12-17T12:43:03.816Z,38.50
2022-12-17T12:46:00.100Z,39.40
2022-12-17T12:48:51.375Z,43.00
2022-12-17T12:51:39.107Z,32.50
2022-12-17T12:54:41.550Z,37.20
2022-12-17T12:57:51.300Z,40.25
2022-12-17T13:00:48.698Z,38.40
2022-12-17T13:03:46.602Z,41.50
2022-12-17T13:06:16.057Z,38.00
2022-12-17T13:08:44.093Z,46.00
2022-12-17T13:11:29.202Z,55.00
2022-12-17T13:13:59.455Z,35.60
2022-12-17T13:16:33.265Z,39.00
2022-12-17T13:19:16.738Z,39.25
2022-12-17T13:21:44.865Z,32.00
2022-12-17T13:24:13.562Z,42.40
2022-12-17T13:26:45.022Z,40.20
2022-12-17T13:29:20.500Z,37.50
2022-12-17T13:32:04.846Z,42.25
2022-12-17T13:34:40.646Z,36.00
2022-12-17T13:37:11.903Z,42.00
2022-12-17T13:39:44.087Z,46.50
2022-12-17T13:42:26.249Z,39.00
2022-12-17T13:44:57.124Z,44.60
2022-12-17T13:47:26.208Z,40.50
2022-12-17T13:50:31.711Z,45.00
2022-12-17T13:52:44.615Z,43.25
2022-12-17T13:55:19.595Z,57.80
2022-12-17T13:57:47.822Z,63.60
2022-12-17T14:00:21.190Z,53.60
2022-12-17T14:02:49.302Z,39.00
2022-12-17T14:05:26.256Z,40.00
2022-12-17T14:07:54.353Z,45.80
2022-12-17T14:10:22.573Z,47.00
2022-12-17T14:12:50.179Z,60.00
2022-12-17T14:15:25.533Z,33.20
2022-12-17T14:17:53.888Z,50.00
2022-12-17T14:20:22.905Z,39.80
2022-12-17T14:22:52.983Z,35.25
2022-12-17T14:25:22.644Z,52.60
2022-12-17T14:27:53.789Z,48.75
2022-12-17T14:30:24.107Z,41.60
2022-12-17T14:32:52.198Z,46.50
2022-12-17T14:35:27.067Z,41.60
2022-12-17T14:37:56.481Z,34.80
2022-12-17T14:40:25.877Z,35.40
2022-12-17T14:42:53.991Z,35.33
2022-12-17T14:45:23.913Z,41.50
2022-12-17T14:47:55.436Z,46.25
2022-12-17T14:50:29.186Z,43.00
2022-12-17T14:52:59.325Z,44.40
2022-12-17T14:55:37.450Z,39.40
2022-12-17T14:58:19.991Z,40.00
2022-12-17T15:00:50.052Z,28.75
2022-12-17T15:03:23.268Z,46.00
2022-12-17T15:05:56.318Z,35.25
2022-12-17T15:08:25.699Z,41.60
2022-12-17T15:10:53.755Z,66.40
2022-12-17T15:13:24.309Z,37.00
2022-12-17T15:15:52.379Z,33.00
2022-12-17T15:18:20.394Z,39.00
2022-12-17T15:20:48.429Z,43.20
2022-12-17T15:23:17.159Z,31.50
2022-12-17T15:25:47.284Z,42.00
2022-12-17T15:28:16.590Z,31.20
2022-12-17T15:30:44.679Z,33.67
2022-12-17T15:33:13.190Z,36.00
2022-12-17T15:35:41.351Z,34.80
2022-12-17T15:38:09.597Z,31.50
2022-12-17T15:40:37.733Z,28.75
2022-12-17T15:43:12.169Z,32.00
2022-12-17T15:45:41.201Z,31.00
2022-12-17T15:48:09.515Z,30.20
2022-12-17T15:50:37.634Z,31.00
2022-12-17T15:53:05.651Z,34.20
2022-12-17T15:55:33.714Z,31.00
2022-12-17T15:58:01.732Z,31.20
2022-12-17T16:00:31.162Z,31.00
2022-12-17T16:02:59.394Z,26.20
2022-12-17T16:05:28.176Z,33.67
2022-12-17T16:07:58.993Z,31.60
2022-12-17T16:10:27.059Z,38.00
2022-12-17T16:12:55.074Z,33.00
2022-12-17T16:15:23.121Z,32.00
2022-12-17T16:17:52.499Z,32.20
2022-12-17T16:20:21.195Z,25.60
2022-12-17T16:22:49.458Z,30.20
2022-12-17T16:25:17.533Z,45.60
2022-12-17T16:27:45.551Z,44.00
2022-12-17T16:30:14.875Z,47.20
2022-12-17T16:32:42.925Z,44.50
2022-12-17T16:35:12.566Z,45.00
2022-12-17T16:37:40.586Z,48.80
2022-12-17T16:40:10.090Z,42.00
2022-12-17T16:42:38.119Z,41.75
2022-12-17T16:45:07.376Z,51.75
2022-12-17T16:47:35.440Z,37.00
2022-12-17T16:50:03.482Z,31.60
2022-12-17T16:52:32.860Z,36.00
2022-12-17T16:55:00.937Z,42.00
2022-12-17T16:57:28.997Z,36.00
2022-12-17T16:59:57.028Z,42.40
2022-12-17T17:02:25.214Z,31.67
2022-12-17T17:04:53.496Z,42.60
2022-12-17T17:07:21.690Z,36.00
2022-12-17T17:09:51.063Z,31.25
2022-12-17T17:12:19.082Z,29.00
2022-12-17T17:14:47.120Z,31.25
2022-12-17T17:17:17.755Z,45.00
2022-12-17T17:19:45.797Z,32.80
2022-12-17T17:22:13.806Z,42.25
2022-12-17T17:24:41.847Z,42.00
2022-12-17T17:27:11.276Z,40.20
2022-12-17T17:29:39.309Z,35.25
2022-12-17T17:32:12.915Z,34.75
2022-12-17T17:34:41.442Z,34.25
2022-12-17T17:37:09.502Z,28.50
2022-12-17T17:39:37.547Z,40.00
2022-12-17T17:42:05.716Z,31.50
2022-12-17T17:44:35.132Z,40.75
2022-12-17T17:47:03.271Z,35.40
2022-12-17T17:49:31.339Z,42.00
2022-12-17T17:52:14.612Z,37.00
2022-12-17T17:54:42.655Z,29.50
2022-12-17T17:57:10.822Z,37.25
2022-12-17T17:59:40.476Z,44.00
2022-12-17T18:02:09.006Z,28.80
2022-12-17T18:04:37.189Z,35.80
2022-12-17T18:09:53.353Z,44.60
2022-12-17T18:12:39.982Z,41.00
2022-12-17T18:15:15.252Z,25.40
2022-12-17T18:17:44.875Z,27.75
2022-12-17T18:20:13.012Z,30.50
2022-12-17T18:22:41.266Z,29.75
2022-12-17T18:25:09.418Z,27.60
2022-12-17T18:27:37.429Z,49.20
2022-12-17T18:30:06.258Z,22.00
2022-12-17T18:32:35.639Z,22.80
2022-12-17T18:35:04.190Z,31.60
2022-12-17T18:37:32.201Z,37.60
2022-12-17T18:40:00.234Z,30.40
2022-12-17T18:42:45.522Z,33.75
2022-12-17T18:45:13.537Z,30.40
2022-12-17T18:47:44.648Z,34.60
2022-12-17T18:50:13.485Z,33.00
2022-12-17T18:52:42.237Z,28.40
2022-12-17T18:55:11.862Z,29.60
2022-12-17T18:57:39.847Z,35.00
2022-12-17T19:00:09.176Z,30.00
2022-12-17T19:02:37.289Z,30.40
2022-12-17T19:05:07.226Z,31.00
2022-12-17T19:07:35.217Z,28.00
2022-12-17T19:10:03.233Z,28.00
2022-12-17T19:12:31.265Z,34.00
2022-12-17T19:14:59.273Z,30.00
2022-12-17T19:17:27.445Z,32.50
2022-12-17T19:19:55.466Z,27.00
2022-12-17T19:22:24.786Z,25.50
2022-12-17T19:24:52.801Z,26.20
2022-12-17T19:27:20.787Z,33.00
2022-12-17T19:29:49.975Z,30.00
2022-12-17T19:32:20.794Z,27.00
2022-12-17T19:34:48.809Z,30.00
2022-12-17T19:37:17.159Z,37.00
2022-12-17T19:39:46.518Z,27.00
2022-12-17T19:42:24.990Z,31.00
2022-12-17T19:44:53.768Z,34.00
2022-12-17T19:47:22.040Z,27.40
2022-12-17T19:49:50.118Z,29.50
2022-12-17T19:52:18.443Z,26.20
2022-12-17T19:54:47.801Z,34.20
2022-12-17T19:57:17.007Z,39.20
2022-12-17T19:59:45.029Z,43.00
2022-12-17T20:02:13.140Z,28.00
2022-12-17T20:04:41.277Z,35.20
2022-12-17T20:07:09.303Z,35.80
2022-12-17T20:09:37.311Z,31.67
2022-12-17T20:12:07.215Z,26.00
2022-12-17T20:14:36.137Z,23.60
2022-12-17T20:17:05.101Z,25.80
2022-12-17T20:19:34.674Z,24.00
2022-12-17T20:22:04.365Z,21.80
2022-12-17T20:24:32.641Z,22.00
2022-12-17T20:27:00.950Z,30.80
2022-12-17T20:29:30.358Z,27.00
2022-12-17T20:31:58.505Z,27.00
2022-12-17T20:34:29.622Z,23.00
2022-12-17T20:36:57.637Z,30.20
2022-12-17T20:39:28.237Z,30.60
2022-12-17T20:41:57.297Z,29.00
2022-12-17T20:44:25.342Z,59.50
2022-12-17T20:46:54.720Z,32.50
2022-12-17T20:49:22.729Z,37.25
2022-12-17T20:51:50.783Z,32.50
2022-12-17T20:54:18.848Z,32.00
2022-12-17T20:56:47.024Z,33.00
2022-12-17T20:59:16.304Z,27.00
2022-12-17T21:01:44.518Z,26.00
2022-12-17T21:04:14.149Z,27.20
2022-12-17T21:06:43.278Z,28.50
2022-12-17T21:09:11.529Z,31.67
2022-12-17T21:11:39.982Z,25.50
2022-12-17T21:14:08.455Z,25.40
2022-12-17T21:16:37.175Z,31.00
2022-12-17T21:19:05.804Z,24.00
2022-12-17T21:21:36.368Z,60.60
2022-12-17T21:24:04.545Z,20.00
2022-12-17T21:26:33.714Z,27.00
2022-12-17T21:29:02.217Z,28.00
2022-12-17T21:31:31.141Z,28.60
2022-12-17T21:34:00.937Z,24.00
2022-12-17T21:36:30.388Z,24.00
2022-12-17T21:39:00.488Z,25.25
2022-12-17T21:41:30.414Z,29.50
2022-12-17T21:43:59.502Z,26.00
2022-12-17T21:46:28.407Z,28.00
2022-12-17T21:48:56.757Z,24.00
2022-12-17T21:51:24.821Z,22.00
2022-12-17T21:53:54.189Z,33.20
2022-12-17T21:56:23.709Z,31.00
2022-12-17T21:58:52.166Z,31.00
2022-12-17T22:01:22.014Z,29.50
2022-12-17T22:03:53.688Z,27.00
2022-12-17T22:06:24.019Z,24.80
2022-12-17T22:09:01.270Z,28.00
2022-12-17T22:11:42.002Z,30.00
2022-12-17T22:14:16.990Z,24.50
2022-12-17T22:16:49.658Z,35.50
2022-12-17T22:19:22.534Z,29.60
2022-12-17T22:21:57.476Z,29.00
2022-12-17T22:24:26.126Z,41.20
2022-12-17T22:27:00.318Z,24.00
2022-12-17T22:29:46.111Z,35.00
2022-12-17T22:32:34.308Z,30.50
2022-12-17T22:36:01.418Z,33.00
2022-12-17T22:41:45.671Z,26.00
2022-12-17T22:44:35.923Z,30.20
2022-12-17T22:44:40.754Z,30.00
2022-12-17T22:46:18.564Z,21.00
2022-12-17T22:48:46.614Z,33.75
2022-12-17T22:51:20.749Z,30.25
2022-12-17T22:54:01.340Z,29.25
2022-12-17T22:57:32.816Z,29.00
2022-12-17T22:59:19.431Z,27.80
2022-12-17T23:01:47.590Z,37.00
2022-12-17T23:04:16.086Z,33.40
2022-12-17T23:06:45.347Z,30.80
2022-12-17T23:09:13.586Z,27.00
2022-12-17T23:11:41.614Z,31.00
2022-12-17T23:14:09.677Z,37.25
2022-12-17T23:16:40.272Z,42.25
2022-12-17T23:19:08.415Z,39.20
2022-12-17T23:21:36.546Z,31.50
2022-12-17T23:24:04.802Z,30.20
2022-12-17T23:26:33.966Z,33.20
2022-12-17T23:29:03.069Z,27.00
2022-12-17T23:31:33.610Z,24.00
2022-12-17T23:34:02.984Z,28.75
2022-12-17T23:36:31.038Z,37.50
2022-12-17T23:38:59.139Z,31.25
2022-12-17T23:41:28.456Z,29.60
2022-12-17T23:43:56.528Z,33.25
2022-12-17T23:46:25.514Z,30.25
2022-12-17T23:48:53.615Z,36.50
2022-12-17T23:51:23.734Z,35.00
2022-12-17T23:53:51.764Z,30.60
2022-12-17T23:56:21.367Z,33.00
2022-12-17T23:58:49.374Z,27.00
